trainspy.com alexa rank chart, trainspy.com alexa rank daily changes

trainspy.com alexa rank chart, trainspy.com alexa rank daily changes

trainspy.com
Actual rank:
131 313

RANK HISTORY

Date Rank Diff
2017/05/22 131 313 +1 233
2017/05/21 130 080 +138
2017/05/20 129 942 -2 191
2017/05/19 132 133 -885
2017/05/18 133 018 +178
2017/05/17 132 840 -1 626
2017/05/16 134 466 -1 520
2017/05/15 135 986 -308
2017/05/14 136 294 -348
2017/05/13 136 642 +78
2017/05/12 136 564 -2 924
2017/05/11 139 488 -1 104
2017/05/10 140 592 +438
2017/05/09 140 154 -2 085
2017/05/08 142 239 -2 875
2017/05/07 145 114 -1 345
2017/05/06 146 459 +1 156
2017/05/05 145 303 -1 472
2017/05/04 146 775 +253
2017/05/03 146 522 +712
2017/05/02 145 810 +634
2017/05/01 145 176 -3 445
2017/04/30 148 621 -4 019
2017/04/29 152 640 +130
2017/04/28 152 510 +385
2017/04/27 152 125 +1 256
2017/04/26 150 869 +245
2017/04/25 150 624 +440
2017/04/24 150 184 -288
2017/04/23 150 472 -1 543
2017/04/22 152 015 -4 134
2017/04/21 156 149 -2 450
2017/04/20 158 599 -139
2017/04/19 158 738 -967
2017/04/18 159 705 -531
2017/04/17 160 236 -242
2017/04/16 160 478 +652
2017/04/15 159 826 +1 542
2017/04/14 158 284 -3 946
2017/04/13 162 230 +1 324
2017/04/12 160 906 +3 544
2017/04/11 157 362 -2 409
2017/04/10 159 771 -966
2017/04/09 160 737 -649
2017/04/08 161 386 +1 775
2017/04/07 159 611 +789
2017/04/06 158 822 +932
2017/04/05 157 890 +841
2017/04/04 157 049 -2 558
2017/04/03 159 607 -1 839
2017/04/02 161 446 +1 762
2017/04/01 159 684 +333
2017/03/31 159 351 +2 344
2017/03/30 157 007 +2 204
2017/03/29 154 803 -121
2017/03/28 154 924 -1 238
2017/03/27 156 162 -187
2017/03/26 156 349 -1 636
2017/03/25 157 985 +2 371
2017/03/24 155 614 -3 320
2017/03/23 158 934

WIDGET FOR YOUR SITE

DOMAINS WITH THE NEAREST RANK

Domain Rank
sindhexpress.com.pk 131 308
canon.com.sg 131 309
lewisandquark.tumblr.com 131 310
meguiarsonline.com 131 311
tennisvlaanderen.be 131 312
trainspy.com 131 313
cottontraders.com 131 314
swindonadvertiser.co.uk 131 315
caymanchem.com 131 316
top5-vpn.com 131 317
soovle.com 131 318

DOMAINS WITH THE NEAREST RANK BY TLD .com

Domain Rank
filmmusicreporter.com 131 297
fermedesaintemarthe.com 131 298
psicologiamsn.com 131 301
autotempest.com 131 304
meguiarsonline.com 131 311
trainspy.com 131 313
cottontraders.com 131 314
caymanchem.com 131 316
top5-vpn.com 131 317
soovle.com 131 318
easytechguides.com 131 321